createdAt,value
2022-08-24T00:01:28.072Z,6.70
2022-08-24T00:03:57.644Z,7.32
2022-08-24T00:06:28.081Z,7.40
2022-08-24T00:08:58.135Z,7.82
2022-08-24T00:11:26.580Z,7.60
2022-08-24T00:13:54.290Z,7.40
2022-08-24T00:16:22.234Z,8.32
2022-08-24T00:18:50.440Z,7.28
2022-08-24T00:21:19.055Z,7.45
2022-08-24T00:23:49.769Z,7.68
2022-08-24T00:26:28.489Z,8.45
2022-08-24T00:28:58.655Z,7.78
2022-08-24T00:31:26.445Z,7.85
2022-08-24T00:33:54.687Z,7.55
2022-08-24T00:36:23.122Z,8.52
2022-08-24T00:38:50.634Z,8.65
2022-08-24T00:41:18.219Z,8.75
2022-08-24T00:43:58.375Z,8.43
2022-08-24T00:46:33.026Z,8.75
2022-08-24T00:49:20.388Z,9.05
2022-08-24T00:52:04.571Z,8.93
2022-08-24T00:54:34.090Z,9.27
2022-08-24T00:57:04.957Z,10.20
2022-08-24T00:59:37.341Z,9.65
2022-08-24T01:02:15.429Z,10.07
2022-08-24T01:04:54.122Z,9.13
2022-08-24T01:07:23.731Z,9.65
2022-08-24T01:09:57.289Z,9.77
2022-08-24T01:12:25.372Z,8.95
2022-08-24T01:14:53.803Z,9.60
2022-08-24T01:17:40.902Z,9.82
2022-08-24T01:20:09.401Z,9.60
2022-08-24T01:22:53.491Z,9.70
2022-08-24T01:25:22.607Z,9.75
2022-08-24T01:27:50.645Z,10.50
2022-08-24T01:30:18.723Z,10.90
2022-08-24T01:32:59.657Z,10.07
2022-08-24T01:35:28.179Z,10.77
2022-08-24T01:37:57.539Z,11.73
2022-08-24T01:40:33.662Z,9.98
2022-08-24T01:43:02.511Z,11.10
2022-08-24T01:45:31.131Z,10.52
2022-08-24T01:47:59.726Z,10.40
2022-08-24T01:50:27.430Z,11.15
2022-08-24T01:53:04.904Z,11.43
2022-08-24T01:55:33.614Z,10.57
2022-08-24T01:58:01.460Z,10.43
2022-08-24T02:00:29.837Z,10.52
2022-08-24T02:02:57.646Z,12.10
2022-08-24T02:05:25.158Z,11.30
2022-08-24T02:07:53.166Z,11.45
2022-08-24T02:10:21.696Z,10.88
2022-08-24T02:12:57.853Z,11.73
2022-08-24T02:15:33.251Z,11.05
2022-08-24T02:18:04.537Z,11.73
2022-08-24T02:20:32.416Z,13.20
2022-08-24T02:23:00.198Z,11.88
2022-08-24T02:25:30.555Z,12.02
2022-08-24T02:27:59.874Z,12.35
2022-08-24T02:30:28.640Z,11.65
2022-08-24T02:32:56.617Z,13.48
2022-08-24T02:35:24.789Z,14.27
2022-08-24T02:37:52.539Z,13.60
2022-08-24T02:40:20.381Z,13.18
2022-08-24T02:42:49.014Z,14.32
2022-08-24T02:45:16.508Z,14.45
2022-08-24T02:47:45.163Z,14.75
2022-08-24T02:50:15.698Z,14.90
2022-08-24T02:52:44.491Z,14.63
2022-08-24T02:55:19.965Z,15.82
2022-08-24T02:57:48.375Z,14.70
2022-08-24T03:00:17.680Z,13.82
2022-08-24T03:02:46.276Z,15.05
2022-08-24T03:05:15.547Z,15.82
2022-08-24T03:07:43.526Z,16.17
2022-08-24T03:10:12.237Z,15.75
2022-08-24T03:12:40.023Z,16.48
2022-08-24T03:15:10.519Z,16.00
2022-08-24T03:17:39.968Z,16.45
2022-08-24T03:20:14.173Z,17.77
2022-08-24T03:22:42.661Z,16.10
2022-08-24T03:25:11.613Z,17.12
2022-08-24T03:27:39.533Z,17.30
2022-08-24T03:30:10.287Z,19.17
2022-08-24T03:32:41.160Z,17.37
2022-08-24T03:35:10.108Z,17.90
2022-08-24T03:37:37.640Z,17.25
2022-08-24T03:40:07.960Z,18.35
2022-08-24T03:42:50.463Z,15.35
2022-08-24T03:45:19.306Z,16.52
2022-08-24T03:47:46.744Z,15.60
2022-08-24T03:50:14.835Z,14.85
2022-08-24T03:52:42.516Z,14.98
2022-08-24T03:55:10.440Z,15.38
2022-08-24T03:57:38.112Z,15.32
2022-08-24T04:00:09.860Z,14.27
2022-08-24T04:02:42.176Z,14.05
2022-08-24T04:05:10.731Z,13.82
2022-08-24T04:07:38.755Z,13.73
2022-08-24T04:10:06.677Z,13.85
2022-08-24T04:12:34.616Z,13.27
2022-08-24T04:15:02.423Z,13.35
2022-08-24T04:17:30.922Z,13.23
2022-08-24T04:19:58.852Z,12.52
2022-08-24T04:22:28.716Z,13.13
2022-08-24T04:24:56.745Z,13.43
2022-08-24T04:27:24.482Z,12.68
2022-08-24T04:29:51.933Z,13.32
2022-08-24T04:32:20.082Z,14.30
2022-08-24T04:34:48.148Z,14.02
2022-08-24T04:37:17.626Z,15.07
2022-08-24T04:39:50.430Z,13.52
2022-08-24T04:42:20.083Z,13.48
2022-08-24T04:44:47.559Z,14.32
2022-08-24T04:47:15.569Z,12.75
2022-08-24T04:49:43.041Z,13.68
2022-08-24T04:52:10.559Z,13.45
2022-08-24T04:54:39.019Z,13.13
2022-08-24T04:57:06.704Z,12.73
2022-08-24T04:59:34.324Z,13.23
2022-08-24T05:02:02.246Z,13.57
2022-08-24T05:04:29.680Z,13.20
2022-08-24T05:06:58.882Z,13.27
2022-08-24T05:09:27.417Z,12.43
2022-08-24T05:11:55.670Z,12.25
2022-08-24T05:14:28.031Z,12.68
2022-08-24T05:16:56.478Z,11.80
2022-08-24T05:19:24.331Z,11.73
2022-08-24T05:21:51.804Z,12.43
2022-08-24T05:24:19.668Z,12.48
2022-08-24T05:26:47.169Z,11.30
2022-08-24T05:29:15.160Z,10.95
2022-08-24T05:31:44.729Z,11.45
2022-08-24T05:34:13.574Z,11.63
2022-08-24T05:36:42.502Z,11.93
2022-08-24T05:39:13.326Z,12.52
2022-08-24T05:41:44.245Z,12.45
2022-08-24T05:44:14.249Z,12.10
2022-08-24T05:46:43.175Z,11.48
2022-08-24T05:49:11.347Z,11.52
2022-08-24T05:51:40.145Z,10.52
2022-08-24T05:54:07.733Z,12.15
2022-08-24T05:56:35.615Z,11.35
2022-08-24T05:59:03.763Z,10.95
2022-08-24T06:01:31.717Z,9.95
2022-08-24T06:04:00.130Z,9.57
2022-08-24T06:06:28.668Z,9.48
2022-08-24T06:08:57.755Z,10.15
2022-08-24T06:11:30.761Z,10.02
2022-08-24T06:14:12.168Z,9.65
2022-08-24T06:16:42.934Z,7.95
2022-08-24T06:19:13.139Z,8.70
2022-08-24T06:21:41.128Z,8.38
2022-08-24T06:24:08.605Z,8.10
2022-08-24T06:26:55.301Z,7.85
2022-08-24T06:29:23.024Z,6.82
2022-08-24T06:31:54.696Z,7.47
2022-08-24T06:34:25.930Z,8.10
2022-08-24T06:36:53.727Z,8.05
2022-08-24T06:39:21.713Z,7.82
2022-08-24T06:41:50.268Z,7.95
2022-08-24T06:44:19.907Z,7.30
2022-08-24T06:46:47.803Z,7.00
2022-08-24T06:49:15.701Z,6.55
2022-08-24T06:51:46.348Z,6.40
2022-08-24T06:54:17.062Z,6.35
2022-08-24T06:56:44.479Z,6.45
2022-08-24T06:59:12.633Z,6.53
2022-08-24T07:01:40.383Z,6.10
2022-08-24T07:04:08.456Z,5.68
2022-08-24T07:06:37.287Z,5.97
2022-08-24T07:09:05.344Z,5.18
2022-08-24T07:11:35.003Z,5.62
2022-08-24T07:14:02.716Z,6.85
2022-08-24T07:16:31.208Z,6.50
2022-08-24T07:18:58.964Z,6.03
2022-08-24T07:21:28.251Z,6.10
2022-08-24T07:23:58.248Z,6.43
2022-08-24T07:26:28.103Z,7.18
2022-08-24T07:29:04.872Z,6.25
2022-08-24T07:31:35.520Z,6.93
2022-08-24T07:36:33.725Z,6.25
2022-08-24T07:39:02.436Z,6.18
2022-08-24T07:41:51.432Z,5.47
2022-08-24T07:44:19.148Z,4.80
2022-08-24T07:46:46.992Z,4.82
2022-08-24T07:49:33.294Z,4.47
2022-08-24T07:52:03.267Z,4.00
2022-08-24T07:54:30.803Z,4.10
2022-08-24T07:57:00.251Z,3.22
2022-08-24T07:59:28.423Z,3.60
2022-08-24T08:01:56.607Z,3.87
2022-08-24T08:04:25.981Z,3.40
2022-08-24T08:09:28.323Z,3.90
2022-08-24T08:11:55.863Z,3.33
2022-08-24T08:14:23.580Z,3.90
2022-08-24T08:16:51.375Z,3.60
2022-08-24T08:19:18.976Z,3.92
2022-08-24T08:22:07.397Z,3.65
2022-08-24T08:24:37.575Z,3.65
2022-08-24T08:27:05.969Z,4.18
2022-08-24T08:29:35.185Z,3.90
2022-08-24T08:32:03.169Z,3.92
2022-08-24T08:34:31.467Z,3.70
2022-08-24T08:36:59.835Z,3.65
2022-08-24T08:39:27.908Z,3.33
2022-08-24T08:42:21.305Z,3.55
2022-08-24T08:44:58.125Z,3.53
2022-08-24T08:47:49.689Z,3.37
2022-08-24T08:50:22.007Z,3.28
2022-08-24T08:52:55.803Z,3.20
2022-08-24T08:55:46.017Z,3.80
2022-08-24T08:58:53.793Z,3.60
2022-08-24T09:01:52.384Z,3.87
2022-08-24T09:04:43.866Z,3.95
2022-08-24T09:07:17.342Z,3.70
2022-08-24T09:09:52.265Z,3.60
2022-08-24T09:12:57.824Z,4.00
2022-08-24T09:15:47.189Z,3.35
2022-08-24T09:18:41.390Z,3.20
2022-08-24T09:21:31.134Z,2.83
2022-08-24T09:24:01.522Z,3.40
2022-08-24T09:26:33.051Z,3.20
2022-08-24T09:29:16.435Z,3.70
2022-08-24T09:32:16.343Z,3.50
2022-08-24T09:34:57.505Z,3.22
2022-08-24T09:37:31.832Z,3.30
2022-08-24T09:40:35.381Z,3.50
2022-08-24T09:43:32.772Z,2.87
2022-08-24T09:46:28.996Z,3.60
2022-08-24T09:49:02.386Z,3.65
2022-08-24T09:52:00.976Z,4.00
2022-08-24T09:54:59.244Z,3.60
2022-08-24T09:58:04.689Z,3.08
2022-08-24T10:00:41.936Z,2.42
2022-08-24T10:03:23.904Z,2.58
2022-08-24T10:06:15.977Z,3.10
2022-08-24T10:08:59.838Z,2.90
2022-08-24T10:11:50.508Z,3.20
2022-08-24T10:14:47.385Z,3.10
2022-08-24T10:17:42.959Z,3.00
2022-08-24T10:20:23.428Z,2.60
2022-08-24T10:23:28.452Z,3.15
2022-08-24T10:26:08.371Z,3.67
2022-08-24T10:28:44.832Z,3.78
2022-08-24T10:31:25.416Z,3.67
2022-08-24T10:33:55.577Z,4.03
2022-08-24T10:36:26.049Z,3.70
2022-08-24T10:39:43.804Z,3.62
2022-08-24T10:42:55.160Z,4.10
2022-08-24T10:45:48.140Z,3.45
2022-08-24T10:48:43.860Z,3.97
2022-08-24T10:51:23.072Z,4.15
2022-08-24T10:53:52.859Z,4.03
2022-08-24T10:56:36.565Z,4.28
2022-08-24T10:59:32.146Z,4.30
2022-08-24T11:02:12.421Z,4.10
2022-08-24T11:04:41.586Z,3.60
2022-08-24T11:07:17.724Z,4.40
2022-08-24T11:09:56.185Z,4.10
2022-08-24T11:12:30.352Z,4.22
2022-08-24T11:15:10.827Z,4.37
2022-08-24T11:17:38.376Z,4.62
2022-08-24T11:20:26.606Z,4.30
2022-08-24T11:23:05.193Z,5.43
2022-08-24T11:25:35.771Z,5.18
2022-08-24T11:28:09.544Z,5.70
2022-08-24T11:30:41.744Z,5.70
2022-08-24T11:33:27.455Z,6.32
2022-08-24T11:35:55.160Z,5.90
2022-08-24T11:38:30.591Z,6.05
2022-08-24T11:41:04.044Z,6.45
2022-08-24T11:43:53.303Z,6.85
2022-08-24T11:46:43.115Z,6.97
2022-08-24T11:49:34.433Z,7.78
2022-08-24T11:52:20.036Z,7.72
2022-08-24T11:55:07.835Z,7.03
2022-08-24T11:57:47.411Z,6.93
2022-08-24T12:00:18.724Z,6.43
2022-08-24T12:02:56.468Z,6.35
2022-08-24T12:05:42.550Z,6.28
2022-08-24T12:08:19.429Z,5.07
2022-08-24T12:10:46.656Z,4.32
2022-08-24T12:13:35.379Z,4.68
2022-08-24T12:16:26.003Z,4.40
2022-08-24T12:19:17.700Z,4.97
2022-08-24T12:21:48.532Z,4.28
2022-08-24T12:24:20.360Z,5.85
2022-08-24T12:26:51.227Z,6.03
2022-08-24T12:29:28.648Z,6.87
2022-08-24T12:32:12.195Z,6.68
2022-08-24T12:34:59.108Z,7.45
2022-08-24T12:37:52.072Z,8.75
2022-08-24T12:40:34.259Z,8.35
2022-08-24T12:43:08.546Z,8.20
2022-08-24T12:45:37.843Z,8.48
2022-08-24T12:48:26.623Z,8.60
2022-08-24T12:51:16.195Z,8.80
2022-08-24T12:54:12.238Z,8.15
2022-08-24T12:57:17.514Z,8.48
2022-08-24T12:59:51.869Z,8.60
2022-08-24T13:02:19.428Z,8.70
2022-08-24T13:04:49.725Z,9.55
2022-08-24T13:07:19.752Z,9.77
2022-08-24T13:09:56.211Z,9.68
2022-08-24T13:12:43.418Z,10.68
2022-08-24T13:15:23.325Z,10.82
2022-08-24T13:17:53.475Z,12.37
2022-08-24T13:20:21.252Z,12.18
2022-08-24T13:23:02.873Z,13.00
2022-08-24T13:28:21.425Z,12.90
2022-08-24T13:31:15.432Z,12.93
2022-08-24T13:33:57.495Z,12.75
2022-08-24T13:36:30.947Z,14.25
2022-08-24T13:39:35.846Z,13.77
2022-08-24T13:42:21.717Z,14.35
2022-08-24T13:45:01.191Z,13.57
2022-08-24T13:47:45.337Z,14.60
2022-08-24T13:50:28.823Z,14.73
2022-08-24T13:53:12.419Z,14.52
2022-08-24T13:55:47.888Z,14.15
2022-08-24T13:58:36.762Z,14.18
2022-08-24T14:01:33.940Z,15.55
2022-08-24T14:04:08.107Z,15.55
2022-08-24T14:06:58.863Z,15.20
2022-08-24T14:09:32.655Z,15.57
2022-08-24T14:12:20.331Z,14.38
2022-08-24T14:14:54.081Z,15.75
2022-08-24T14:18:03.743Z,16.23
2022-08-24T14:20:56.588Z,15.75
2022-08-24T14:23:39.528Z,15.68
2022-08-24T14:26:38.805Z,15.18
2022-08-24T14:29:15.334Z,14.43
2022-08-24T14:31:59.957Z,16.05
2022-08-24T14:34:41.961Z,16.17
2022-08-24T14:37:36.099Z,15.43
2022-08-24T14:40:37.222Z,16.30
2022-08-24T14:43:11.288Z,15.98
2022-08-24T14:45:46.225Z,16.50
2022-08-24T14:48:55.526Z,13.75
2022-08-24T14:51:54.760Z,16.12
2022-08-24T14:54:39.846Z,16.15
2022-08-24T14:57:10.083Z,16.75
2022-08-24T15:00:06.180Z,15.35
2022-08-24T15:02:51.555Z,16.27
2022-08-24T15:05:25.003Z,15.50
2022-08-24T15:07:55.569Z,13.55
2022-08-24T15:10:26.422Z,14.10
2022-08-24T15:13:03.538Z,14.07
2022-08-24T15:15:35.565Z,13.35
2022-08-24T15:18:18.104Z,13.75
2022-08-24T15:21:16.742Z,12.98
2022-08-24T15:23:53.072Z,13.55
2022-08-24T15:26:42.056Z,12.02
2022-08-24T15:29:15.178Z,11.02
2022-08-24T15:31:43.715Z,12.23
2022-08-24T15:34:11.393Z,12.10
2022-08-24T15:36:38.784Z,10.68
2022-08-24T15:39:06.694Z,11.63
2022-08-24T15:41:38.980Z,11.15
2022-08-24T15:44:23.452Z,9.65
2022-08-24T15:46:55.186Z,9.18
2022-08-24T15:49:34.775Z,8.80
2022-08-24T15:52:08.704Z,8.40
2022-08-24T15:54:46.290Z,8.48
2022-08-24T15:57:43.608Z,8.95
2022-08-24T16:00:44.455Z,8.85
2022-08-24T16:03:45.045Z,8.80
2022-08-24T16:06:31.443Z,9.52
2022-08-24T16:09:20.752Z,9.00
2022-08-24T16:11:56.741Z,8.23
2022-08-24T16:14:30.248Z,8.65
2022-08-24T16:16:58.386Z,8.50
2022-08-24T16:19:31.156Z,8.93
2022-08-24T16:22:07.960Z,8.50
2022-08-24T16:24:38.378Z,8.18
2022-08-24T16:27:10.683Z,7.78
2022-08-24T16:29:38.164Z,8.20
2022-08-24T16:32:22.078Z,8.32
2022-08-24T16:35:08.617Z,8.95
2022-08-24T16:37:36.198Z,8.80
2022-08-24T16:40:05.202Z,8.95
2022-08-24T16:42:32.911Z,9.13
2022-08-24T16:45:00.623Z,7.53
2022-08-24T16:47:29.043Z,8.20
2022-08-24T16:49:56.741Z,8.02
2022-08-24T16:52:24.367Z,8.52
2022-08-24T16:54:51.991Z,7.62
2022-08-24T16:57:24.446Z,7.78
2022-08-24T16:59:52.727Z,7.15
2022-08-24T17:02:22.247Z,7.05
2022-08-24T17:04:50.040Z,7.30
2022-08-24T17:07:23.998Z,7.30
2022-08-24T17:09:51.580Z,7.32
2022-08-24T17:12:19.208Z,7.18
2022-08-24T17:14:46.547Z,7.53
2022-08-24T17:17:17.125Z,7.55
2022-08-24T17:19:47.332Z,6.87
2022-08-24T17:22:16.535Z,6.97
2022-08-24T17:24:45.087Z,7.93
2022-08-24T17:27:13.067Z,7.50
2022-08-24T17:29:42.039Z,7.00
2022-08-24T17:32:09.438Z,7.45
2022-08-24T17:34:37.485Z,7.35
2022-08-24T17:37:05.171Z,7.80
2022-08-24T17:39:32.709Z,7.30
2022-08-24T17:42:00.473Z,7.40
2022-08-24T17:44:32.032Z,7.03
2022-08-24T17:47:03.653Z,7.97
2022-08-24T17:49:32.612Z,7.57
2022-08-24T17:52:00.485Z,7.28
2022-08-24T17:54:28.351Z,7.37
2022-08-24T17:56:56.176Z,8.07
2022-08-24T17:59:31.689Z,7.93
2022-08-24T18:02:01.816Z,7.72
2022-08-24T18:04:30.977Z,7.85
2022-08-24T18:07:03.015Z,9.05
2022-08-24T18:09:37.173Z,8.63
2022-08-24T18:12:06.818Z,8.43
2022-08-24T18:14:35.182Z,8.63
2022-08-24T18:17:05.490Z,9.50
2022-08-24T18:19:33.410Z,8.10
2022-08-24T18:22:01.942Z,7.87
2022-08-24T18:24:32.813Z,7.95
2022-08-24T18:27:10.131Z,8.67
2022-08-24T18:29:42.575Z,8.63
2022-08-24T18:32:11.761Z,8.88
2022-08-24T18:34:40.030Z,8.32
2022-08-24T18:37:07.694Z,8.02
2022-08-24T18:39:35.461Z,7.78
2022-08-24T18:42:05.342Z,8.13
2022-08-24T18:44:32.732Z,8.20
2022-08-24T18:47:00.072Z,8.20
2022-08-24T18:49:28.076Z,8.20
2022-08-24T18:51:55.692Z,7.70
2022-08-24T18:54:31.836Z,7.62
2022-08-24T18:56:59.497Z,7.82
2022-08-24T18:59:26.876Z,6.95
2022-08-24T19:02:12.956Z,7.75
2022-08-24T19:04:45.204Z,8.30
2022-08-24T19:07:13.517Z,8.32
2022-08-24T19:09:41.271Z,7.75
2022-08-24T19:12:08.956Z,7.45
2022-08-24T19:14:37.119Z,8.35
2022-08-24T19:17:06.440Z,7.78
2022-08-24T19:19:34.044Z,7.60
2022-08-24T19:22:02.503Z,7.80
2022-08-24T19:24:30.905Z,7.32
2022-08-24T19:27:01.923Z,7.70
2022-08-24T19:29:54.070Z,7.82
2022-08-24T19:32:24.070Z,7.55
2022-08-24T19:34:52.593Z,7.80
2022-08-24T19:37:21.352Z,8.27
2022-08-24T19:39:51.068Z,7.93
2022-08-24T19:42:19.516Z,8.13
2022-08-24T19:45:05.527Z,7.10
2022-08-24T19:47:34.537Z,7.93
2022-08-24T19:50:03.716Z,7.53
2022-08-24T19:52:32.161Z,7.70
2022-08-24T19:54:59.859Z,7.40
2022-08-24T19:57:36.908Z,7.30
2022-08-24T20:00:29.370Z,7.93
2022-08-24T20:02:57.463Z,7.30
2022-08-24T20:05:26.616Z,7.30
2022-08-24T20:07:54.286Z,7.93
2022-08-24T20:10:22.936Z,7.10
2022-08-24T20:12:50.716Z,7.62
2022-08-24T20:15:18.883Z,7.35
2022-08-24T20:17:47.016Z,7.50
2022-08-24T20:20:16.892Z,7.37
2022-08-24T20:22:44.382Z,7.37
2022-08-24T20:25:12.461Z,7.28
2022-08-24T20:27:39.825Z,7.47
2022-08-24T20:30:08.316Z,6.80
2022-08-24T20:32:36.054Z,6.62
2022-08-24T20:35:04.204Z,7.05
2022-08-24T20:37:32.652Z,7.32
2022-08-24T20:40:00.782Z,6.70
2022-08-24T20:42:29.402Z,7.45
2022-08-24T20:44:56.723Z,7.20
2022-08-24T20:47:24.319Z,7.32
2022-08-24T20:49:51.642Z,6.97
2022-08-24T20:52:19.118Z,6.57
2022-08-24T20:54:46.691Z,7.15
2022-08-24T20:57:18.157Z,7.43
2022-08-24T20:59:45.829Z,6.75
2022-08-24T21:02:13.730Z,7.25
2022-08-24T21:04:41.120Z,7.03
2022-08-24T21:07:10.511Z,7.68
2022-08-24T21:09:38.683Z,6.80
2022-08-24T21:12:06.875Z,7.03
2022-08-24T21:14:34.509Z,7.12
2022-08-24T21:17:04.633Z,7.75
2022-08-24T21:19:32.779Z,6.53
2022-08-24T21:22:00.211Z,7.20
2022-08-24T21:24:27.804Z,7.25
2022-08-24T21:26:55.260Z,7.25
2022-08-24T21:29:22.628Z,6.85
2022-08-24T21:32:08.683Z,6.75
2022-08-24T21:34:42.200Z,7.03
2022-08-24T21:37:12.903Z,6.60
2022-08-24T21:39:40.311Z,6.37
2022-08-24T21:42:09.405Z,6.85
2022-08-24T21:44:37.252Z,7.12
2022-08-24T21:47:06.778Z,7.15
2022-08-24T21:49:34.228Z,5.97
2022-08-24T21:52:01.892Z,6.90
2022-08-24T21:54:29.213Z,6.70
2022-08-24T21:56:56.536Z,6.65
2022-08-24T21:59:24.131Z,6.50
2022-08-24T22:01:51.527Z,6.53
2022-08-24T22:04:19.646Z,7.07
2022-08-24T22:06:46.999Z,6.12
2022-08-24T22:09:14.367Z,6.03
2022-08-24T22:11:42.817Z,6.20
2022-08-24T22:14:10.163Z,7.90
2022-08-24T22:16:37.752Z,6.45
2022-08-24T22:19:05.730Z,7.10
2022-08-24T22:21:34.797Z,6.80
2022-08-24T22:24:04.121Z,7.80
2022-08-24T22:26:32.141Z,6.72
2022-08-24T22:29:00.825Z,7.05
2022-08-24T22:31:33.934Z,6.78
2022-08-24T22:34:06.076Z,6.50
2022-08-24T22:36:33.899Z,6.35
2022-08-24T22:39:01.485Z,6.28
2022-08-24T22:41:29.335Z,7.03
2022-08-24T22:44:16.203Z,6.47
2022-08-24T22:46:44.134Z,6.55
2022-08-24T22:49:11.985Z,7.05
2022-08-24T22:51:40.235Z,6.65
2022-08-24T22:54:08.266Z,6.03
2022-08-24T22:56:39.139Z,6.12
2022-08-24T22:59:07.698Z,6.30
2022-08-24T23:01:38.417Z,6.25
2022-08-24T23:04:08.775Z,6.28
2022-08-24T23:06:36.499Z,5.97
2022-08-24T23:09:05.246Z,6.25
2022-08-24T23:11:33.104Z,5.97
2022-08-24T23:14:05.218Z,5.35
2022-08-24T23:16:34.623Z,6.90
2022-08-24T23:19:20.963Z,5.90
2022-08-24T23:21:48.776Z,6.15
2022-08-24T23:24:16.836Z,6.68
2022-08-24T23:26:44.507Z,5.72
2022-08-24T23:29:13.793Z,6.50
2022-08-24T23:31:42.075Z,6.47
2022-08-24T23:34:10.295Z,5.62
2022-08-24T23:36:38.338Z,6.35
2022-08-24T23:39:07.523Z,5.93
2022-08-24T23:41:38.251Z,6.30
2022-08-24T23:44:11.172Z,5.85
2022-08-24T23:46:39.654Z,5.93
2022-08-24T23:49:07.936Z,5.82
2022-08-24T23:51:36.386Z,5.75
2022-08-24T23:54:05.902Z,6.55
2022-08-24T23:56:36.764Z,5.90
2022-08-24T23:59:07.987Z,5.70
